Yacolt, WA

7:23 AM PDT on June 03, 2015 (GMT -0700)
Yacolt Mountain | | Change Station
CLOSE
Current Station
Personal Weather Station
Location: Yacolt, WA
Elevation: 1010 ft
Nearby Weather Stations

Elev 1010 ft 45.86 °N, 122.44 °W | Updated 40 seconds ago

Overcast
Overcast
48.9 °F
Feels Like 49 °F
N
0.0
Wind Variable Wind from South
Gusts 0.0 mph

Today
High -- | Low -- °F
--% Chance of Precip.
Yesterday
High -- | Low -- °F
Precip. -- in
5:22 AM 8:54 PM
Full, 99% visible
Pressure 30.08 in
Visibility 10.0 miles
Clouds Few 800 ft
Overcast 4100 ft
Windchill 49 °F
Dew Point 48 °F
Humidity 98%
Rainfall 0.00 in
Snow Depth Not available.
UV 1.0 out of 12
Pollen 7.10 out of 12
Air Quality Not available.
Flu Activity Sporadic
METAR KVUO 031353Z AUTO 00000KT 10SM FEW008 OVC041 13/12 A3008 RMK AO2 SLP184 T01330117

More Conditions Fewer Conditions

Pressure 30.08 in
Visibility 10.0 miles
Clouds Few 800 ft
Overcast 4100 ft
Windchill 49 °F
Dew Point 48 °F
Humidity 98%
Rainfall 0.00 in
Snow Depth Not available.
UV 1.0 out of 12
Pollen 7.10 out of 12
Air Quality Not available.
Flu Activity Sporadic
METAR KVUO 031353Z AUTO 00000KT 10SM FEW008 OVC041 13/12 A3008 RMK AO2 SLP184 T01330117

More Conditions Fewer Conditions

10-Day Weather Forecast

×

Almanac

Astronomy

Jun. 03, 2015 Rise Set
Actual Time
Civil Twilight
Nautical Twilight
Astronomical Twilight
Moon
Length of Visible Light
Length of Day
Tomorrow will be .
, % of the Moon is Illuminated

Today's Extremes

State Highs State Lows

Community

WunderPhotos

Upload Photos

1,826,229 photos uploaded!

WunderBlogs® & News

Nearby

Air Quality

  Air Quality AQ Index Pollutant
Not available.

Snow Depth

Station Depth Elevation

Earthquake Activity

City Distance Mag. Time & Date
Minimum magnitude displayed is 2.5.

Coastal Water Temperatures

Place Temperature

Stations

Nearby Weather Stations

Station Location Temp. Windchill Dew Point Humidity Wind Precip. Elev Updated Type